sensor_id;sensor_type;location;lat;lon;timestamp;temperature;humidity
7014;DHT22;3547;50.774;12.918;2023-12-29T00:01:03;6.80;1.00
7014;DHT22;3547;50.774;12.918;2023-12-29T00:03:29;6.70;1.00
7014;DHT22;3547;50.774;12.918;2023-12-29T00:05:55;6.70;1.00
7014;DHT22;3547;50.774;12.918;2023-12-29T00:08:22;6.70;1.00
7014;DHT22;3547;50.774;12.918;2023-12-29T00:10:48;6.70;1.00
7014;DHT22;3547;50.774;12.918;2023-12-29T00:13:14;6.70;1.00
7014;DHT22;3547;50.774;12.918;2023-12-29T00:15:40;6.70;1.00
7014;DHT22;3547;50.774;12.918;2023-12-29T00:18:09;6.70;1.00
7014;DHT22;3547;50.774;12.918;2023-12-29T00:20:35;6.80;1.00
7014;DHT22;3547;50.774;12.918;2023-12-29T00:23:03;6.90;1.00
7014;DHT22;3547;50.774;12.918;2023-12-29T00:25:29;6.80;1.00
7014;DHT22;3547;50.774;12.918;2023-12-29T00:27:56;6.80;1.00
7014;DHT22;3547;50.774;12.918;2023-12-29T00:30:23;6.80;1.00
7014;DHT22;3547;50.774;12.918;2023-12-29T00:32:49;6.80;1.00
7014;DHT22;3547;50.774;12.918;2023-12-29T00:35:15;6.70;1.00
7014;DHT22;3547;50.774;12.918;2023-12-29T00:37:52;6.70;1.00
7014;DHT22;3547;50.774;12.918;2023-12-29T00:40:20;6.70;1.00
7014;DHT22;3547;50.774;12.918;2023-12-29T00:42:47;6.60;1.00
7014;DHT22;3547;50.774;12.918;2023-12-29T00:45:13;6.70;1.00
7014;DHT22;3547;50.774;12.918;2023-12-29T00:47:42;6.60;1.00
7014;DHT22;3547;50.774;12.918;2023-12-29T00:50:13;6.60;1.00
7014;DHT22;3547;50.774;12.918;2023-12-29T00:52:42;6.70;1.00
7014;DHT22;3547;50.774;12.918;2023-12-29T00:55:13;6.70;1.00
7014;DHT22;3547;50.774;12.918;2023-12-29T00:57:46;6.80;1.00
7014;DHT22;3547;50.774;12.918;2023-12-29T01:00:13;6.80;1.00
7014;DHT22;3547;50.774;12.918;2023-12-29T01:02:39;6.90;1.00
7014;DHT22;3547;50.774;12.918;2023-12-29T01:05:07;6.80;1.00
7014;DHT22;3547;50.774;12.918;2023-12-29T01:07:33;6.80;1.00
7014;DHT22;3547;50.774;12.918;2023-12-29T01:13:24;6.80;1.00
7014;DHT22;3547;50.774;12.918;2023-12-29T01:15:50;6.80;1.00
7014;DHT22;3547;50.774;12.918;2023-12-29T01:18:17;6.90;1.00
7014;DHT22;3547;50.774;12.918;2023-12-29T01:20:43;6.90;1.00
7014;DHT22;3547;50.774;12.918;2023-12-29T01:23:12;6.80;1.00
7014;DHT22;3547;50.774;12.918;2023-12-29T01:25:40;6.80;1.00
7014;DHT22;3547;50.774;12.918;2023-12-29T01:31:33;6.70;1.00
7014;DHT22;3547;50.774;12.918;2023-12-29T01:34:00;6.70;1.00
7014;DHT22;3547;50.774;12.918;2023-12-29T01:36:26;6.80;1.00
7014;DHT22;3547;50.774;12.918;2023-12-29T01:38:52;6.90;1.00
7014;DHT22;3547;50.774;12.918;2023-12-29T01:41:22;6.90;1.00
7014;DHT22;3547;50.774;12.918;2023-12-29T01:46:31;6.80;1.00
7014;DHT22;3547;50.774;12.918;2023-12-29T01:49:01;6.70;1.00
7014;DHT22;3547;50.774;12.918;2023-12-29T01:51:30;6.70;1.00
7014;DHT22;3547;50.774;12.918;2023-12-29T01:53:57;6.70;1.00
7014;DHT22;3547;50.774;12.918;2023-12-29T01:59:48;6.80;1.00
7014;DHT22;3547;50.774;12.918;2023-12-29T02:02:17;6.80;1.00
7014;DHT22;3547;50.774;12.918;2023-12-29T02:04:54;7.00;1.00
7014;DHT22;3547;50.774;12.918;2023-12-29T02:07:21;6.90;1.00
7014;DHT22;3547;50.774;12.918;2023-12-29T02:09:48;6.80;1.00
7014;DHT22;3547;50.774;12.918;2023-12-29T02:12:15;6.80;1.00
7014;DHT22;3547;50.774;12.918;2023-12-29T02:14:41;6.70;1.00
7014;DHT22;3547;50.774;12.918;2023-12-29T02:17:12;6.70;1.00
7014;DHT22;3547;50.774;12.918;2023-12-29T02:19:41;6.60;1.00
7014;DHT22;3547;50.774;12.918;2023-12-29T02:22:13;6.60;1.00
7014;DHT22;3547;50.774;12.918;2023-12-29T02:24:50;6.50;1.00
7014;DHT22;3547;50.774;12.918;2023-12-29T02:33:05;6.40;1.00
7014;DHT22;3547;50.774;12.918;2023-12-29T02:35:38;6.40;1.00
7014;DHT22;3547;50.774;12.918;2023-12-29T02:38:05;6.50;1.00
7014;DHT22;3547;50.774;12.918;2023-12-29T02:40:34;6.60;1.00
7014;DHT22;3547;50.774;12.918;2023-12-29T02:43:02;6.60;1.00
7014;DHT22;3547;50.774;12.918;2023-12-29T02:45:29;6.60;1.00
7014;DHT22;3547;50.774;12.918;2023-12-29T02:47:55;6.80;1.00
7014;DHT22;3547;50.774;12.918;2023-12-29T02:50:24;6.70;1.00
7014;DHT22;3547;50.774;12.918;2023-12-29T02:52:50;6.90;1.00
7014;DHT22;3547;50.774;12.918;2023-12-29T02:55:16;6.80;1.00
7014;DHT22;3547;50.774;12.918;2023-12-29T02:57:42;6.90;1.00
7014;DHT22;3547;50.774;12.918;2023-12-29T03:00:10;7.00;1.00
7014;DHT22;3547;50.774;12.918;2023-12-29T03:02:40;6.90;1.00
7014;DHT22;3547;50.774;12.918;2023-12-29T03:05:06;6.90;1.00
7014;DHT22;3547;50.774;12.918;2023-12-29T03:07:32;6.90;1.00
7014;DHT22;3547;50.774;12.918;2023-12-29T03:10:02;7.00;1.00
7014;DHT22;3547;50.774;12.918;2023-12-29T03:12:29;7.00;1.00
7014;DHT22;3547;50.774;12.918;2023-12-29T03:14:56;7.00;1.00
7014;DHT22;3547;50.774;12.918;2023-12-29T03:17:22;6.90;1.00
7014;DHT22;3547;50.774;12.918;2023-12-29T03:19:48;7.00;1.00
7014;DHT22;3547;50.774;12.918;2023-12-29T03:22:15;7.00;1.00
7014;DHT22;3547;50.774;12.918;2023-12-29T03:24:41;7.00;1.00
7014;DHT22;3547;50.774;12.918;2023-12-29T03:27:16;7.00;1.00
7014;DHT22;3547;50.774;12.918;2023-12-29T03:29:44;7.00;1.00
7014;DHT22;3547;50.774;12.918;2023-12-29T03:32:10;7.10;1.00
7014;DHT22;3547;50.774;12.918;2023-12-29T03:34:36;7.10;1.00
7014;DHT22;3547;50.774;12.918;2023-12-29T03:37:02;7.20;1.00
7014;DHT22;3547;50.774;12.918;2023-12-29T03:39:28;7.10;1.00
7014;DHT22;3547;50.774;12.918;2023-12-29T03:41:57;7.30;1.00
7014;DHT22;3547;50.774;12.918;2023-12-29T03:44:23;7.30;1.00
7014;DHT22;3547;50.774;12.918;2023-12-29T03:46:49;7.40;1.00
7014;DHT22;3547;50.774;12.918;2023-12-29T03:49:16;7.30;1.00
7014;DHT22;3547;50.774;12.918;2023-12-29T03:51:42;7.30;1.00
7014;DHT22;3547;50.774;12.918;2023-12-29T03:54:08;7.40;1.00
7014;DHT22;3547;50.774;12.918;2023-12-29T03:56:34;7.40;1.00
7014;DHT22;3547;50.774;12.918;2023-12-29T03:59:00;7.30;1.00
7014;DHT22;3547;50.774;12.918;2023-12-29T04:01:26;7.30;1.00
7014;DHT22;3547;50.774;12.918;2023-12-29T04:03:53;7.30;1.00
7014;DHT22;3547;50.774;12.918;2023-12-29T04:06:21;7.20;1.00
7014;DHT22;3547;50.774;12.918;2023-12-29T04:08:50;7.30;1.00
7014;DHT22;3547;50.774;12.918;2023-12-29T04:11:16;7.20;1.00
7014;DHT22;3547;50.774;12.918;2023-12-29T04:13:43;7.20;1.00
7014;DHT22;3547;50.774;12.918;2023-12-29T04:16:09;7.10;1.00
7014;DHT22;3547;50.774;12.918;2023-12-29T04:18:35;7.10;1.00
7014;DHT22;3547;50.774;12.918;2023-12-29T04:21:01;7.00;1.00
7014;DHT22;3547;50.774;12.918;2023-12-29T04:23:30;7.10;1.00
7014;DHT22;3547;50.774;12.918;2023-12-29T04:25:56;7.10;1.00
7014;DHT22;3547;50.774;12.918;2023-12-29T04:28:22;7.10;1.00
7014;DHT22;3547;50.774;12.918;2023-12-29T04:30:48;7.10;1.00
7014;DHT22;3547;50.774;12.918;2023-12-29T04:36:37;7.20;1.00
7014;DHT22;3547;50.774;12.918;2023-12-29T04:39:03;7.20;1.00
7014;DHT22;3547;50.774;12.918;2023-12-29T04:41:35;7.10;1.00
7014;DHT22;3547;50.774;12.918;2023-12-29T04:44:01;7.10;1.00
7014;DHT22;3547;50.774;12.918;2023-12-29T04:46:27;7.10;1.00
7014;DHT22;3547;50.774;12.918;2023-12-29T04:48:54;7.00;1.00
7014;DHT22;3547;50.774;12.918;2023-12-29T04:51:20;7.00;1.00
7014;DHT22;3547;50.774;12.918;2023-12-29T04:53:46;7.00;1.00
7014;DHT22;3547;50.774;12.918;2023-12-29T04:56:15;6.90;1.00
7014;DHT22;3547;50.774;12.918;2023-12-29T04:58:42;6.90;1.00
7014;DHT22;3547;50.774;12.918;2023-12-29T05:01:09;7.00;1.00
7014;DHT22;3547;50.774;12.918;2023-12-29T05:03:35;7.00;1.00
7014;DHT22;3547;50.774;12.918;2023-12-29T05:06:01;7.00;1.00
7014;DHT22;3547;50.774;12.918;2023-12-29T05:08:30;7.00;1.00
7014;DHT22;3547;50.774;12.918;2023-12-29T05:10:56;7.00;1.00
7014;DHT22;3547;50.774;12.918;2023-12-29T05:13:23;7.00;1.00
7014;DHT22;3547;50.774;12.918;2023-12-29T05:15:49;7.10;1.00
7014;DHT22;3547;50.774;12.918;2023-12-29T05:18:15;7.10;1.00
7014;DHT22;3547;50.774;12.918;2023-12-29T05:20:42;7.10;1.00
7014;DHT22;3547;50.774;12.918;2023-12-29T05:23:11;7.10;1.00
7014;DHT22;3547;50.774;12.918;2023-12-29T05:25:37;7.10;1.00
7014;DHT22;3547;50.774;12.918;2023-12-29T05:28:03;7.10;1.00
7014;DHT22;3547;50.774;12.918;2023-12-29T05:30:29;7.20;1.00
7014;DHT22;3547;50.774;12.918;2023-12-29T05:32:57;7.20;1.00
7014;DHT22;3547;50.774;12.918;2023-12-29T05:35:24;7.30;1.00
7014;DHT22;3547;50.774;12.918;2023-12-29T05:37:50;7.40;1.00
7014;DHT22;3547;50.774;12.918;2023-12-29T05:40:16;7.40;1.00
7014;DHT22;3547;50.774;12.918;2023-12-29T05:42:42;7.40;1.00
7014;DHT22;3547;50.774;12.918;2023-12-29T05:45:09;7.40;1.00
7014;DHT22;3547;50.774;12.918;2023-12-29T05:47:35;7.30;1.00
7014;DHT22;3547;50.774;12.918;2023-12-29T05:50:01;7.20;1.00
7014;DHT22;3547;50.774;12.918;2023-12-29T05:52:27;7.20;1.00
7014;DHT22;3547;50.774;12.918;2023-12-29T05:54:54;7.10;1.00
7014;DHT22;3547;50.774;12.918;2023-12-29T05:57:23;7.20;1.00
7014;DHT22;3547;50.774;12.918;2023-12-29T05:59:49;7.10;1.00
7014;DHT22;3547;50.774;12.918;2023-12-29T06:05:38;7.00;1.00
7014;DHT22;3547;50.774;12.918;2023-12-29T06:08:04;7.00;1.00
7014;DHT22;3547;50.774;12.918;2023-12-29T06:10:38;7.00;1.00
7014;DHT22;3547;50.774;12.918;2023-12-29T06:13:05;7.00;1.00
7014;DHT22;3547;50.774;12.918;2023-12-29T06:15:31;7.00;1.00
7014;DHT22;3547;50.774;12.918;2023-12-29T06:17:57;7.00;1.00
7014;DHT22;3547;50.774;12.918;2023-12-29T06:20:27;7.00;1.00
7014;DHT22;3547;50.774;12.918;2023-12-29T06:22:55;7.00;1.00
7014;DHT22;3547;50.774;12.918;2023-12-29T06:25:21;7.00;1.00
7014;DHT22;3547;50.774;12.918;2023-12-29T06:27:47;7.00;1.00
7014;DHT22;3547;50.774;12.918;2023-12-29T06:30:15;6.90;1.00
7014;DHT22;3547;50.774;12.918;2023-12-29T06:32:41;6.90;1.00
7014;DHT22;3547;50.774;12.918;2023-12-29T06:35:09;7.00;1.00
7014;DHT22;3547;50.774;12.918;2023-12-29T06:37:38;6.90;1.00
7014;DHT22;3547;50.774;12.918;2023-12-29T06:40:06;6.90;1.00
7014;DHT22;3547;50.774;12.918;2023-12-29T06:42:33;6.90;1.00
7014;DHT22;3547;50.774;12.918;2023-12-29T06:45:00;6.90;1.00
7014;DHT22;3547;50.774;12.918;2023-12-29T06:47:26;6.90;1.00
7014;DHT22;3547;50.774;12.918;2023-12-29T06:49:52;6.90;1.00
7014;DHT22;3547;50.774;12.918;2023-12-29T06:52:18;6.90;1.00
7014;DHT22;3547;50.774;12.918;2023-12-29T06:54:44;6.90;1.00
7014;DHT22;3547;50.774;12.918;2023-12-29T06:57:11;7.00;1.00
7014;DHT22;3547;50.774;12.918;2023-12-29T06:59:40;7.00;1.00
7014;DHT22;3547;50.774;12.918;2023-12-29T07:02:06;7.00;1.00
7014;DHT22;3547;50.774;12.918;2023-12-29T07:04:33;7.00;1.00
7014;DHT22;3547;50.774;12.918;2023-12-29T07:07:00;6.90;1.00
7014;DHT22;3547;50.774;12.918;2023-12-29T07:09:27;6.90;1.00
7014;DHT22;3547;50.774;12.918;2023-12-29T07:11:54;6.80;1.00
7014;DHT22;3547;50.774;12.918;2023-12-29T07:14:20;6.80;1.00
7014;DHT22;3547;50.774;12.918;2023-12-29T07:16:46;6.90;1.00
7014;DHT22;3547;50.774;12.918;2023-12-29T07:19:12;7.00;1.00
7014;DHT22;3547;50.774;12.918;2023-12-29T07:21:39;7.00;1.00
7014;DHT22;3547;50.774;12.918;2023-12-29T07:24:05;6.80;1.00
7014;DHT22;3547;50.774;12.918;2023-12-29T07:26:34;6.90;1.00
7014;DHT22;3547;50.774;12.918;2023-12-29T07:29:05;6.80;1.00
7014;DHT22;3547;50.774;12.918;2023-12-29T07:31:38;6.90;1.00
7014;DHT22;3547;50.774;12.918;2023-12-29T07:34:06;6.80;1.00
7014;DHT22;3547;50.774;12.918;2023-12-29T07:36:37;6.90;1.00
7014;DHT22;3547;50.774;12.918;2023-12-29T07:39:03;7.00;1.00
7014;DHT22;3547;50.774;12.918;2023-12-29T07:41:30;7.00;1.00
7014;DHT22;3547;50.774;12.918;2023-12-29T07:43:56;7.10;1.00
7014;DHT22;3547;50.774;12.918;2023-12-29T07:46:26;7.10;1.00
7014;DHT22;3547;50.774;12.918;2023-12-29T07:48:52;7.20;1.00
7014;DHT22;3547;50.774;12.918;2023-12-29T07:51:19;7.40;1.00
7014;DHT22;3547;50.774;12.918;2023-12-29T07:53:46;7.40;1.00
7014;DHT22;3547;50.774;12.918;2023-12-29T07:56:12;7.40;1.00
7014;DHT22;3547;50.774;12.918;2023-12-29T07:58:38;7.50;1.00
7014;DHT22;3547;50.774;12.918;2023-12-29T08:01:04;7.60;1.00
7014;DHT22;3547;50.774;12.918;2023-12-29T08:03:31;7.60;1.00
7014;DHT22;3547;50.774;12.918;2023-12-29T08:05:57;7.80;1.00
7014;DHT22;3547;50.774;12.918;2023-12-29T08:08:23;7.80;1.00
7014;DHT22;3547;50.774;12.918;2023-12-29T08:10:49;7.90;1.00
7014;DHT22;3547;50.774;12.918;2023-12-29T08:16:39;8.00;1.00
7014;DHT22;3547;50.774;12.918;2023-12-29T08:19:06;8.10;1.00
7014;DHT22;3547;50.774;12.918;2023-12-29T08:21:33;8.00;1.00
7014;DHT22;3547;50.774;12.918;2023-12-29T08:24:01;8.10;1.00
7014;DHT22;3547;50.774;12.918;2023-12-29T08:26:28;8.10;1.00
7014;DHT22;3547;50.774;12.918;2023-12-29T08:28:56;8.10;1.00
7014;DHT22;3547;50.774;12.918;2023-12-29T08:31:28;8.10;1.00
7014;DHT22;3547;50.774;12.918;2023-12-29T08:33:55;8.10;1.00
7014;DHT22;3547;50.774;12.918;2023-12-29T08:36:21;8.10;1.00
7014;DHT22;3547;50.774;12.918;2023-12-29T08:38:47;8.20;1.00
7014;DHT22;3547;50.774;12.918;2023-12-29T08:41:15;8.20;1.00
7014;DHT22;3547;50.774;12.918;2023-12-29T08:43:44;8.20;1.00
7014;DHT22;3547;50.774;12.918;2023-12-29T08:46:10;8.30;1.00
7014;DHT22;3547;50.774;12.918;2023-12-29T08:48:36;8.40;1.00
7014;DHT22;3547;50.774;12.918;2023-12-29T08:51:03;8.30;1.00
7014;DHT22;3547;50.774;12.918;2023-12-29T08:53:30;8.40;1.00
7014;DHT22;3547;50.774;12.918;2023-12-29T08:56:00;8.40;1.00
7014;DHT22;3547;50.774;12.918;2023-12-29T08:58:26;8.40;1.00
7014;DHT22;3547;50.774;12.918;2023-12-29T09:00:52;8.40;1.00
7014;DHT22;3547;50.774;12.918;2023-12-29T09:03:18;8.50;1.00
7014;DHT22;3547;50.774;12.918;2023-12-29T09:05:44;8.40;1.00
7014;DHT22;3547;50.774;12.918;2023-12-29T09:08:10;8.50;1.00
7014;DHT22;3547;50.774;12.918;2023-12-29T09:10:37;8.50;1.00
7014;DHT22;3547;50.774;12.918;2023-12-29T09:13:05;8.50;1.00
7014;DHT22;3547;50.774;12.918;2023-12-29T09:15:31;8.50;1.00
7014;DHT22;3547;50.774;12.918;2023-12-29T09:17:59;8.60;1.00
7014;DHT22;3547;50.774;12.918;2023-12-29T09:20:25;8.60;1.00
7014;DHT22;3547;50.774;12.918;2023-12-29T09:22:51;8.60;1.00
7014;DHT22;3547;50.774;12.918;2023-12-29T09:25:18;8.70;1.00
7014;DHT22;3547;50.774;12.918;2023-12-29T09:27:44;8.70;1.00
7014;DHT22;3547;50.774;12.918;2023-12-29T09:30:11;8.60;1.00
7014;DHT22;3547;50.774;12.918;2023-12-29T09:36:05;8.80;1.00
7014;DHT22;3547;50.774;12.918;2023-12-29T09:38:34;8.80;1.00
7014;DHT22;3547;50.774;12.918;2023-12-29T09:41:04;8.80;1.00
7014;DHT22;3547;50.774;12.918;2023-12-29T09:43:34;8.90;1.00
7014;DHT22;3547;50.774;12.918;2023-12-29T09:46:02;8.90;1.00
7014;DHT22;3547;50.774;12.918;2023-12-29T09:48:30;8.90;1.00
7014;DHT22;3547;50.774;12.918;2023-12-29T09:50:57;8.90;1.00
7014;DHT22;3547;50.774;12.918;2023-12-29T09:53:24;8.80;1.00
7014;DHT22;3547;50.774;12.918;2023-12-29T09:55:51;8.90;1.00
7014;DHT22;3547;50.774;12.918;2023-12-29T09:58:21;8.70;1.00
7014;DHT22;3547;50.774;12.918;2023-12-29T10:01:03;8.80;1.00
7014;DHT22;3547;50.774;12.918;2023-12-29T10:06:53;8.80;1.00
7014;DHT22;3547;50.774;12.918;2023-12-29T10:09:20;8.70;1.00
7014;DHT22;3547;50.774;12.918;2023-12-29T10:11:47;8.60;1.00
7014;DHT22;3547;50.774;12.918;2023-12-29T10:14:58;8.70;1.00
7014;DHT22;3547;50.774;12.918;2023-12-29T10:20:25;8.70;1.00
7014;DHT22;3547;50.774;12.918;2023-12-29T10:23:05;8.70;1.00
7014;DHT22;3547;50.774;12.918;2023-12-29T10:25:35;8.80;1.00
7014;DHT22;3547;50.774;12.918;2023-12-29T10:28:02;8.90;1.00
7014;DHT22;3547;50.774;12.918;2023-12-29T10:30:29;8.90;1.00
7014;DHT22;3547;50.774;12.918;2023-12-29T10:32:56;9.00;1.00
7014;DHT22;3547;50.774;12.918;2023-12-29T10:35:32;9.00;1.00
7014;DHT22;3547;50.774;12.918;2023-12-29T10:38:11;9.00;1.00
7014;DHT22;3547;50.774;12.918;2023-12-29T10:40:40;9.00;1.00
7014;DHT22;3547;50.774;12.918;2023-12-29T10:43:09;9.20;1.00
7014;DHT22;3547;50.774;12.918;2023-12-29T10:45:35;9.40;1.00
7014;DHT22;3547;50.774;12.918;2023-12-29T10:48:05;9.40;1.00
7014;DHT22;3547;50.774;12.918;2023-12-29T10:50:43;9.50;1.00
7014;DHT22;3547;50.774;12.918;2023-12-29T10:53:16;9.50;1.00
7014;DHT22;3547;50.774;12.918;2023-12-29T10:59:19;9.60;1.00
7014;DHT22;3547;50.774;12.918;2023-12-29T11:01:45;9.60;1.00
7014;DHT22;3547;50.774;12.918;2023-12-29T11:04:13;9.50;1.00
7014;DHT22;3547;50.774;12.918;2023-12-29T11:06:43;9.50;1.00
7014;DHT22;3547;50.774;12.918;2023-12-29T11:09:26;9.60;1.00
7014;DHT22;3547;50.774;12.918;2023-12-29T11:11:53;9.70;1.00
7014;DHT22;3547;50.774;12.918;2023-12-29T11:14:19;9.50;1.00
7014;DHT22;3547;50.774;12.918;2023-12-29T11:16:46;9.60;1.00
7014;DHT22;3547;50.774;12.918;2023-12-29T11:19:13;9.60;1.00
7014;DHT22;3547;50.774;12.918;2023-12-29T11:21:41;9.60;1.00
7014;DHT22;3547;50.774;12.918;2023-12-29T11:24:08;9.60;1.00
7014;DHT22;3547;50.774;12.918;2023-12-29T11:26:37;9.60;1.00
7014;DHT22;3547;50.774;12.918;2023-12-29T11:29:05;9.80;1.00
7014;DHT22;3547;50.774;12.918;2023-12-29T11:31:34;9.90;1.00
7014;DHT22;3547;50.774;12.918;2023-12-29T11:34:09;10.00;1.00
7014;DHT22;3547;50.774;12.918;2023-12-29T11:36:41;9.90;1.00
7014;DHT22;3547;50.774;12.918;2023-12-29T11:44:53;9.90;1.00
7014;DHT22;3547;50.774;12.918;2023-12-29T11:47:36;9.80;1.00
7014;DHT22;3547;50.774;12.918;2023-12-29T11:50:08;9.70;1.00
7014;DHT22;3547;50.774;12.918;2023-12-29T11:52:38;9.70;1.00
7014;DHT22;3547;50.774;12.918;2023-12-29T11:55:11;9.60;1.00
7014;DHT22;3547;50.774;12.918;2023-12-29T11:57:39;9.60;1.00
7014;DHT22;3547;50.774;12.918;2023-12-29T12:00:08;9.60;1.00
7014;DHT22;3547;50.774;12.918;2023-12-29T12:02:43;9.50;1.00
7014;DHT22;3547;50.774;12.918;2023-12-29T12:05:10;9.70;1.00
7014;DHT22;3547;50.774;12.918;2023-12-29T12:10:28;9.60;1.00
7014;DHT22;3547;50.774;12.918;2023-12-29T12:12:56;9.50;1.00
7014;DHT22;3547;50.774;12.918;2023-12-29T12:18:03;9.50;1.00
7014;DHT22;3547;50.774;12.918;2023-12-29T12:20:37;9.50;1.00
7014;DHT22;3547;50.774;12.918;2023-12-29T12:25:39;9.40;1.00
7014;DHT22;3547;50.774;12.918;2023-12-29T12:28:06;9.50;1.00
7014;DHT22;3547;50.774;12.918;2023-12-29T12:30:34;9.40;1.00
7014;DHT22;3547;50.774;12.918;2023-12-29T12:39:53;9.40;1.00
7014;DHT22;3547;50.774;12.918;2023-12-29T12:42:21;9.40;1.00
7014;DHT22;3547;50.774;12.918;2023-12-29T12:45:13;9.40;1.00
7014;DHT22;3547;50.774;12.918;2023-12-29T12:48:03;9.50;1.00
7014;DHT22;3547;50.774;12.918;2023-12-29T12:50:30;9.60;1.00
7014;DHT22;3547;50.774;12.918;2023-12-29T12:53:00;9.60;1.00
7014;DHT22;3547;50.774;12.918;2023-12-29T12:55:33;9.60;1.00
7014;DHT22;3547;50.774;12.918;2023-12-29T12:58:00;9.60;1.00
7014;DHT22;3547;50.774;12.918;2023-12-29T13:00:28;9.50;1.00
7014;DHT22;3547;50.774;12.918;2023-12-29T13:02:57;9.50;1.00
7014;DHT22;3547;50.774;12.918;2023-12-29T13:05:23;9.50;1.00
7014;DHT22;3547;50.774;12.918;2023-12-29T13:07:54;9.50;1.00
7014;DHT22;3547;50.774;12.918;2023-12-29T13:10:22;9.40;1.00
7014;DHT22;3547;50.774;12.918;2023-12-29T13:12:55;9.40;1.00
7014;DHT22;3547;50.774;12.918;2023-12-29T13:15:22;9.40;1.00
7014;DHT22;3547;50.774;12.918;2023-12-29T13:17:53;9.40;1.00
7014;DHT22;3547;50.774;12.918;2023-12-29T13:20:20;9.40;1.00
7014;DHT22;3547;50.774;12.918;2023-12-29T13:22:49;9.40;1.00
7014;DHT22;3547;50.774;12.918;2023-12-29T13:25:26;9.40;1.00
7014;DHT22;3547;50.774;12.918;2023-12-29T13:27:54;9.40;1.00
7014;DHT22;3547;50.774;12.918;2023-12-29T13:30:20;9.40;1.00
7014;DHT22;3547;50.774;12.918;2023-12-29T13:32:49;9.50;1.00
7014;DHT22;3547;50.774;12.918;2023-12-29T13:35:30;9.40;1.00
7014;DHT22;3547;50.774;12.918;2023-12-29T13:38:15;9.50;1.00
7014;DHT22;3547;50.774;12.918;2023-12-29T13:41:02;9.50;1.00
7014;DHT22;3547;50.774;12.918;2023-12-29T13:43:34;9.50;1.00
7014;DHT22;3547;50.774;12.918;2023-12-29T13:46:04;9.50;1.00
7014;DHT22;3547;50.774;12.918;2023-12-29T13:48:33;9.50;1.00
7014;DHT22;3547;50.774;12.918;2023-12-29T13:50:59;9.50;1.00
7014;DHT22;3547;50.774;12.918;2023-12-29T13:53:26;9.50;1.00
7014;DHT22;3547;50.774;12.918;2023-12-29T13:56:06;9.50;1.00
7014;DHT22;3547;50.774;12.918;2023-12-29T13:58:33;9.50;1.00
7014;DHT22;3547;50.774;12.918;2023-12-29T14:01:04;9.50;1.00
7014;DHT22;3547;50.774;12.918;2023-12-29T14:03:42;9.50;1.00
7014;DHT22;3547;50.774;12.918;2023-12-29T14:06:18;9.50;1.00
7014;DHT22;3547;50.774;12.918;2023-12-29T14:08:46;9.50;1.00
7014;DHT22;3547;50.774;12.918;2023-12-29T14:11:13;9.50;1.00
7014;DHT22;3547;50.774;12.918;2023-12-29T14:13:46;9.60;1.00
7014;DHT22;3547;50.774;12.918;2023-12-29T14:16:15;9.60;1.00
7014;DHT22;3547;50.774;12.918;2023-12-29T14:21:26;9.60;1.00
7014;DHT22;3547;50.774;12.918;2023-12-29T14:29:18;9.60;1.00
7014;DHT22;3547;50.774;12.918;2023-12-29T14:38:32;9.50;1.00
7014;DHT22;3547;50.774;12.918;2023-12-29T14:41:05;9.50;1.00
7014;DHT22;3547;50.774;12.918;2023-12-29T14:43:32;9.50;1.00
7014;DHT22;3547;50.774;12.918;2023-12-29T14:45:58;9.40;1.00
7014;DHT22;3547;50.774;12.918;2023-12-29T14:48:24;9.40;1.00
7014;DHT22;3547;50.774;12.918;2023-12-29T14:50:55;9.40;1.00
7014;DHT22;3547;50.774;12.918;2023-12-29T14:53:26;9.30;1.00
7014;DHT22;3547;50.774;12.918;2023-12-29T14:55:52;9.30;1.00
7014;DHT22;3547;50.774;12.918;2023-12-29T14:58:18;9.30;1.00
7014;DHT22;3547;50.774;12.918;2023-12-29T15:00:44;9.40;1.00
7014;DHT22;3547;50.774;12.918;2023-12-29T15:03:13;9.30;1.00
7014;DHT22;3547;50.774;12.918;2023-12-29T15:05:46;9.30;1.00
7014;DHT22;3547;50.774;12.918;2023-12-29T15:08:12;9.30;1.00
7014;DHT22;3547;50.774;12.918;2023-12-29T15:10:40;9.30;1.00
7014;DHT22;3547;50.774;12.918;2023-12-29T15:13:07;9.30;1.00
7014;DHT22;3547;50.774;12.918;2023-12-29T15:15:34;9.30;1.00
7014;DHT22;3547;50.774;12.918;2023-12-29T15:18:01;9.30;1.00
7014;DHT22;3547;50.774;12.918;2023-12-29T15:20:28;9.30;1.00
7014;DHT22;3547;50.774;12.918;2023-12-29T15:22:54;9.30;1.00
7014;DHT22;3547;50.774;12.918;2023-12-29T15:25:21;9.30;1.00
7014;DHT22;3547;50.774;12.918;2023-12-29T15:27:52;9.30;1.00
7014;DHT22;3547;50.774;12.918;2023-12-29T15:30:18;9.30;1.00
7014;DHT22;3547;50.774;12.918;2023-12-29T15:32:45;9.20;1.00
7014;DHT22;3547;50.774;12.918;2023-12-29T15:35:22;9.20;1.00
7014;DHT22;3547;50.774;12.918;2023-12-29T15:37:50;9.30;1.00
7014;DHT22;3547;50.774;12.918;2023-12-29T15:40:17;9.30;1.00
7014;DHT22;3547;50.774;12.918;2023-12-29T15:42:47;9.20;1.00
7014;DHT22;3547;50.774;12.918;2023-12-29T15:45:15;9.20;1.00
7014;DHT22;3547;50.774;12.918;2023-12-29T15:47:44;9.20;1.00
7014;DHT22;3547;50.774;12.918;2023-12-29T15:50:13;9.20;1.00
7014;DHT22;3547;50.774;12.918;2023-12-29T15:52:42;9.20;1.00
7014;DHT22;3547;50.774;12.918;2023-12-29T15:55:08;9.20;1.00
7014;DHT22;3547;50.774;12.918;2023-12-29T15:57:35;9.20;1.00
7014;DHT22;3547;50.774;12.918;2023-12-29T16:00:09;9.30;1.00
7014;DHT22;3547;50.774;12.918;2023-12-29T16:02:42;9.30;1.00
7014;DHT22;3547;50.774;12.918;2023-12-29T16:05:08;9.20;1.00
7014;DHT22;3547;50.774;12.918;2023-12-29T16:07:37;9.30;1.00
7014;DHT22;3547;50.774;12.918;2023-12-29T16:10:05;9.30;1.00
7014;DHT22;3547;50.774;12.918;2023-12-29T16:12:37;9.30;1.00
7014;DHT22;3547;50.774;12.918;2023-12-29T16:15:13;9.30;1.00
7014;DHT22;3547;50.774;12.918;2023-12-29T16:17:42;9.30;1.00
7014;DHT22;3547;50.774;12.918;2023-12-29T16:20:10;9.20;1.00
7014;DHT22;3547;50.774;12.918;2023-12-29T16:22:44;9.10;1.00
7014;DHT22;3547;50.774;12.918;2023-12-29T16:25:10;9.00;1.00
7014;DHT22;3547;50.774;12.918;2023-12-29T16:27:37;9.00;1.00
7014;DHT22;3547;50.774;12.918;2023-12-29T16:30:05;9.00;1.00
7014;DHT22;3547;50.774;12.918;2023-12-29T16:32:32;9.00;1.00
7014;DHT22;3547;50.774;12.918;2023-12-29T16:34:59;9.00;1.00
7014;DHT22;3547;50.774;12.918;2023-12-29T16:37:25;9.00;1.00
7014;DHT22;3547;50.774;12.918;2023-12-29T16:39:53;9.00;1.00
7014;DHT22;3547;50.774;12.918;2023-12-29T16:42:20;9.00;1.00
7014;DHT22;3547;50.774;12.918;2023-12-29T16:48:08;9.00;1.00
7014;DHT22;3547;50.774;12.918;2023-12-29T16:50:37;9.00;1.00
7014;DHT22;3547;50.774;12.918;2023-12-29T16:53:06;9.00;1.00
7014;DHT22;3547;50.774;12.918;2023-12-29T16:55:45;9.10;1.00
7014;DHT22;3547;50.774;12.918;2023-12-29T16:58:16;9.10;1.00
7014;DHT22;3547;50.774;12.918;2023-12-29T17:00:48;9.10;1.00
7014;DHT22;3547;50.774;12.918;2023-12-29T17:03:17;9.10;1.00
7014;DHT22;3547;50.774;12.918;2023-12-29T17:05:49;9.10;1.00
7014;DHT22;3547;50.774;12.918;2023-12-29T17:08:37;9.10;1.00
7014;DHT22;3547;50.774;12.918;2023-12-29T17:11:09;9.10;1.00
7014;DHT22;3547;50.774;12.918;2023-12-29T17:13:37;9.00;1.00
7014;DHT22;3547;50.774;12.918;2023-12-29T17:16:04;9.00;1.00
7014;DHT22;3547;50.774;12.918;2023-12-29T17:18:31;9.00;1.00
7014;DHT22;3547;50.774;12.918;2023-12-29T17:21:03;9.00;1.00
7014;DHT22;3547;50.774;12.918;2023-12-29T17:23:35;8.90;1.00
7014;DHT22;3547;50.774;12.918;2023-12-29T17:26:01;8.90;1.00
7014;DHT22;3547;50.774;12.918;2023-12-29T17:28:30;9.00;1.00
7014;DHT22;3547;50.774;12.918;2023-12-29T17:31:06;8.90;1.00
7014;DHT22;3547;50.774;12.918;2023-12-29T17:33:34;8.90;1.00
7014;DHT22;3547;50.774;12.918;2023-12-29T17:36:00;8.90;1.00
7014;DHT22;3547;50.774;12.918;2023-12-29T17:38:26;8.80;1.00
7014;DHT22;3547;50.774;12.918;2023-12-29T17:40:55;8.80;1.00
7014;DHT22;3547;50.774;12.918;2023-12-29T17:43:24;8.80;1.00
7014;DHT22;3547;50.774;12.918;2023-12-29T17:45:50;8.70;1.00